Time;durP1;ratioP1;P1;durP2;ratioP2;P2;SDS_P1;SDS_P2;PMS_P1;PMS_P2;Temp;Humidity;BMP_temperature;BMP_pressure;BME280_temperature;BME280_humidity;BME280_pressure;Samples;Min_cycle;Max_cycle;Signal;HPM_P1;HPM_P2
2023/04/18 00:01:44;;;;;;;20.80;10.48;;;6.80;99.90;;;;;;5010411;28;20049;-79
2023/04/18 00:04:12;;;;;;;16.45;10.05;;;6.70;99.90;;;;;;5027960;28;20033;-80
2023/04/18 00:06:38;;;;;;;18.58;11.45;;;6.70;99.90;;;;;;5009101;28;20056;-79
2023/04/18 00:09:04;;;;;;;18.30;10.75;;;6.60;99.90;;;;;;5025096;28;20033;-77
2023/04/18 00:11:29;;;;;;;18.60;10.77;;;6.60;99.90;;;;;;5025454;28;20549;-77
2023/04/18 00:13:58;;;;;;;19.33;11.02;;;6.60;99.90;;;;;;5005923;28;20139;-79
2023/04/18 00:16:24;;;;;;;20.17;10.35;;;6.60;99.90;;;;;;5023396;28;20100;-78
2023/04/18 00:18:51;;;;;;;17.30;10.52;;;7.00;99.90;;;;;;5025153;28;20037;-76
2023/04/18 00:21:17;;;;;;;21.50;11.20;;;6.60;99.90;;;;;;5023796;28;20084;-77
2023/04/18 00:23:44;;;;;;;19.17;10.10;;;6.60;99.90;;;;;;5025185;28;20049;-77
2023/04/18 00:26:10;;;;;;;17.77;10.27;;;6.90;99.90;;;;;;5024038;28;20076;-77
2023/04/18 00:28:36;;;;;;;16.55;10.23;;;6.70;99.90;;;;;;5007414;28;20045;-77
2023/04/18 00:31:02;;;;;;;19.45;10.60;;;6.80;99.90;;;;;;5024610;28;20045;-77
2023/04/18 00:33:28;;;;;;;19.02;10.15;;;7.30;99.90;;;;;;5023127;28;20096;-76
2023/04/18 00:35:54;;;;;;;18.30;10.73;;;6.80;99.90;;;;;;5005496;28;20081;-75
2023/04/18 00:38:19;;;;;;;20.15;11.70;;;6.90;99.90;;;;;;5023796;28;20710;-79
2023/04/18 00:40:45;;;;;;;20.60;11.25;;;6.90;99.90;;;;;;5025029;28;20046;-75
2023/04/18 00:43:15;;;;;;;19.13;10.48;;;6.90;99.90;;;;;;4989983;28;20435;-76
2023/04/18 00:45:40;;;;;;;18.05;10.85;;;6.90;99.90;;;;;;5022714;28;20056;-75
2023/04/18 00:48:07;;;;;;;18.88;10.75;;;6.90;99.90;;;;;;5011321;28;20469;-76
2023/04/18 00:50:35;;;;;;;21.67;11.07;;;6.90;99.90;;;;;;5024798;28;20045;-76
2023/04/18 00:53:01;;;;;;;17.88;10.20;;;6.90;99.90;;;;;;5026983;28;20049;-77
2023/04/18 00:55:29;;;;;;;18.95;10.55;;;6.90;99.90;;;;;;5024147;28;20052;-78
2023/04/18 00:57:55;;;;;;;16.33;10.45;;;7.40;99.90;;;;;;5025663;28;20095;-76
2023/04/18 01:00:20;;;;;;;20.08;10.23;;;6.90;99.90;;;;;;5008241;28;20051;-77
2023/04/18 01:02:48;;;;;;;16.55;10.55;;;6.80;99.90;;;;;;5007669;28;20410;-78
2023/04/18 01:05:14;;;;;;;17.48;10.15;;;7.10;99.90;;;;;;5024835;28;20128;-79
2023/04/18 01:07:40;;;;;;;14.60;9.20;;;6.90;99.90;;;;;;5022657;28;20033;-78
2023/04/18 01:10:07;;;;;;;16.45;9.20;;;6.90;99.90;;;;;;5025668;28;20076;-77
2023/04/18 01:12:33;;;;;;;17.60;11.60;;;6.80;99.90;;;;;;5025148;28;20072;-78
2023/04/18 01:14:59;;;;;;;18.17;9.82;;;6.90;99.90;;;;;;5024479;28;20077;-76
2023/04/18 01:17:27;;;;;;;15.75;10.15;;;6.80;99.90;;;;;;5025538;28;20042;-76
2023/04/18 01:19:52;;;;;;;19.02;9.95;;;6.90;99.90;;;;;;5009187;28;20038;-77
2023/04/18 01:22:19;;;;;;;15.82;8.85;;;6.80;99.90;;;;;;5003309;28;20513;-76
2023/04/18 01:24:45;;;;;;;17.10;10.32;;;6.80;99.90;;;;;;5018117;28;20042;-77
2023/04/18 01:27:12;;;;;;;17.75;9.45;;;6.70;99.90;;;;;;5009801;28;20088;-79
2023/04/18 01:29:38;;;;;;;19.10;10.35;;;7.30;99.90;;;;;;5006577;28;20046;-77
2023/04/18 01:32:04;;;;;;;19.20;10.30;;;7.20;99.90;;;;;;5010817;28;20045;-76
2023/04/18 01:34:30;;;;;;;17.38;10.50;;;6.70;99.90;;;;;;5028512;28;20119;-76
2023/04/18 01:36:56;;;;;;;15.70;9.15;;;6.70;99.90;;;;;;5008194;28;20053;-77
2023/04/18 01:39:22;;;;;;;15.65;9.68;;;6.70;99.90;;;;;;5028281;28;20038;-78
2023/04/18 01:41:48;;;;;;;17.63;9.50;;;6.90;99.90;;;;;;5012540;28;20061;-78
2023/04/18 01:44:14;;;;;;;15.43;9.02;;;6.60;99.90;;;;;;5029239;28;20491;-76
2023/04/18 01:46:40;;;;;;;20.73;9.48;;;6.60;99.90;;;;;;5022856;28;20053;-78
2023/04/18 01:49:07;;;;;;;15.65;9.32;;;6.60;99.90;;;;;;5029931;28;20077;-76
2023/04/18 01:51:33;;;;;;;16.98;9.48;;;6.60;99.90;;;;;;5011533;28;20065;-76
2023/04/18 01:53:58;;;;;;;15.35;9.13;;;6.60;99.90;;;;;;5026629;28;20041;-76
2023/04/18 01:56:24;;;;;;;16.10;9.57;;;6.60;99.90;;;;;;5062026;28;20041;-76
2023/04/18 01:58:50;;;;;;;15.90;9.30;;;6.60;99.90;;;;;;5028116;28;20037;-76
2023/04/18 02:01:15;;;;;;;21.23;9.73;;;6.50;99.90;;;;;;5030325;28;20067;-76
2023/04/18 02:03:41;;;;;;;14.65;8.73;;;6.50;99.90;;;;;;5011900;28;20152;-76
2023/04/18 02:06:07;;;;;;;18.50;9.45;;;6.60;99.90;;;;;;5028016;28;20053;-77
2023/04/18 02:08:34;;;;;;;16.17;9.00;;;6.70;99.90;;;;;;5028071;28;20057;-75
2023/04/18 02:11:01;;;;;;;15.10;9.20;;;6.90;99.90;;;;;;5011454;28;20048;-76
2023/04/18 02:13:27;;;;;;;14.30;8.43;;;6.40;99.90;;;;;;5010178;28;20060;-77
2023/04/18 02:15:52;;;;;;;15.50;8.93;;;6.40;99.90;;;;;;5028618;28;20826;-75
2023/04/18 02:18:18;;;;;;;14.15;8.23;;;7.20;99.90;;;;;;5028191;28;20076;-77
2023/04/18 02:20:44;;;;;;;14.38;7.90;;;6.40;99.90;;;;;;5025939;28;20490;-75
2023/04/18 02:23:09;;;;;;;12.75;7.70;;;6.40;99.90;;;;;;5027723;28;20168;-76
2023/04/18 02:25:35;;;;;;;13.73;7.82;;;6.30;99.90;;;;;;5026022;28;20413;-76
2023/04/18 02:28:01;;;;;;;14.00;8.05;;;6.30;99.90;;;;;;5029723;28;20116;-76
2023/04/18 02:30:27;;;;;;;13.75;8.25;;;6.30;99.90;;;;;;5028326;28;20061;-76
2023/04/18 02:32:55;;;;;;;15.70;7.88;;;6.30;99.90;;;;;;5011993;28;20769;-77
2023/04/18 02:35:22;;;;;;;12.57;7.32;;;6.30;99.90;;;;;;5027269;28;20049;-77
2023/04/18 02:37:48;;;;;;;13.05;7.35;;;6.20;99.90;;;;;;5044511;28;20422;-77
2023/04/18 02:40:14;;;;;;;13.60;7.40;;;6.30;99.90;;;;;;5028089;28;20080;-78
2023/04/18 02:42:40;;;;;;;15.65;7.90;;;6.20;99.90;;;;;;5027071;28;20080;-77
2023/04/18 02:45:07;;;;;;;13.27;7.57;;;6.20;99.90;;;;;;5011751;28;20050;-79
2023/04/18 02:47:33;;;;;;;12.25;7.20;;;6.20;99.90;;;;;;5011089;28;20049;-77
2023/04/18 02:49:59;;;;;;;13.32;7.07;;;6.20;99.90;;;;;;5029026;28;20072;-77
2023/04/18 02:52:25;;;;;;;12.63;7.45;;;6.40;99.90;;;;;;5025921;28;20045;-84
2023/04/18 02:54:51;;;;;;;13.00;7.35;;;6.20;99.90;;;;;;5010203;28;20056;-84
2023/04/18 02:57:17;;;;;;;15.43;6.00;;;6.30;99.90;;;;;;5029803;28;20050;-84
2023/04/18 02:59:42;;;;;;;11.20;6.32;;;6.30;99.90;;;;;;5028413;28;20808;-83
2023/04/18 03:02:08;;;;;;;13.85;7.50;;;6.30;99.90;;;;;;5027757;28;20102;-83
2023/04/18 03:04:34;;;;;;;13.13;6.60;;;6.30;99.90;;;;;;5028662;28;20056;-83
2023/04/18 03:07:00;;;;;;;12.13;6.95;;;6.40;99.90;;;;;;5010882;28;20084;-84
2023/04/18 03:09:26;;;;;;;13.70;6.88;;;6.40;99.90;;;;;;5009860;28;20108;-84
2023/04/18 03:11:52;;;;;;;12.98;6.88;;;6.40;99.90;;;;;;5061237;28;20183;-83
2023/04/18 03:14:18;;;;;;;12.32;6.82;;;6.50;99.90;;;;;;5009302;28;20050;-81
2023/04/18 03:16:43;;;;;;;12.63;7.25;;;6.40;99.90;;;;;;5026795;28;20084;-82
2023/04/18 03:19:09;;;;;;;12.60;7.15;;;6.40;99.90;;;;;;5028295;28;20037;-84
2023/04/18 03:21:35;;;;;;;12.70;7.05;;;6.50;99.90;;;;;;5018256;28;20076;-81
2023/04/18 03:24:01;;;;;;;11.48;6.80;;;6.50;99.90;;;;;;5028327;28;20387;-84
2023/04/18 03:26:27;;;;;;;12.95;6.53;;;6.50;99.90;;;;;;5005269;28;20080;-85
2023/04/18 03:28:53;;;;;;;14.25;6.90;;;6.50;99.90;;;;;;5027937;28;20053;-83
2023/04/18 03:31:19;;;;;;;13.88;7.00;;;6.80;99.90;;;;;;5014959;28;20398;-85
2023/04/18 03:33:44;;;;;;;10.02;6.50;;;6.50;99.90;;;;;;5015949;28;20117;-81
2023/04/18 03:36:14;;;;;;;12.25;7.15;;;6.50;99.90;;;;;;5026371;28;20045;-84
2023/04/18 03:38:43;;;;;;;11.07;5.90;;;6.50;99.90;;;;;;5016961;28;20425;-83
2023/04/18 03:41:09;;;;;;;10.82;6.45;;;6.50;99.90;;;;;;5027059;28;20477;-84
2023/04/18 03:43:35;;;;;;;12.32;7.22;;;6.60;99.90;;;;;;5026615;28;20045;-84
2023/04/18 03:46:01;;;;;;;12.32;6.53;;;6.80;99.90;;;;;;5002543;28;20046;-82
2023/04/18 03:48:27;;;;;;;12.95;6.60;;;6.50;99.90;;;;;;5009281;28;20038;-83
2023/04/18 03:50:53;;;;;;;12.57;6.32;;;6.70;99.90;;;;;;5027475;28;20127;-85
2023/04/18 03:53:19;;;;;;;10.43;6.55;;;6.60;99.90;;;;;;5026181;28;20537;-83
2023/04/18 03:55:45;;;;;;;11.02;6.40;;;6.60;99.90;;;;;;5010032;28;20033;-85
2023/04/18 03:58:11;;;;;;;13.68;7.15;;;6.60;99.90;;;;;;5028558;28;20045;-84
2023/04/18 04:00:36;;;;;;;11.25;6.18;;;6.60;99.90;;;;;;5010327;28;20042;-83
2023/04/18 04:03:02;;;;;;;11.13;7.38;;;6.60;99.90;;;;;;5024917;28;21659;-82
2023/04/18 04:05:28;;;;;;;16.90;7.00;;;6.60;99.90;;;;;;5023156;28;20088;-83
2023/04/18 04:07:54;;;;;;;13.20;6.85;;;6.70;99.90;;;;;;5026298;28;20045;-82
2023/04/18 04:10:19;;;;;;;13.30;7.20;;;6.60;99.90;;;;;;5009532;28;20709;-81
2023/04/18 04:12:45;;;;;;;11.00;6.25;;;6.70;99.90;;;;;;5024345;28;20869;-84
2023/04/18 04:15:14;;;;;;;12.00;6.45;;;6.80;99.90;;;;;;5055762;28;20614;-84
2023/04/18 04:17:43;;;;;;;12.68;6.63;;;6.70;99.90;;;;;;5027875;28;20041;-83
2023/04/18 04:20:09;;;;;;;14.80;7.50;;;6.70;99.90;;;;;;5024110;28;20077;-83
2023/04/18 04:22:36;;;;;;;12.05;7.05;;;6.70;99.90;;;;;;5025662;28;20494;-83
2023/04/18 04:25:03;;;;;;;12.52;7.32;;;6.70;99.90;;;;;;5024422;28;20046;-85
2023/04/18 04:27:29;;;;;;;14.40;7.43;;;6.80;99.90;;;;;;5056465;28;20103;-82
2023/04/18 04:29:55;;;;;;;12.52;6.75;;;6.80;99.90;;;;;;5027774;28;20037;-83
2023/04/18 04:32:21;;;;;;;13.15;7.18;;;6.90;99.90;;;;;;5010397;28;20171;-82
2023/04/18 04:34:46;;;;;;;14.82;6.82;;;6.80;99.90;;;;;;5023362;28;20191;-83
2023/04/18 04:37:18;;;;;;;13.18;7.45;;;6.80;99.90;;;;;;5055249;28;20037;-83
2023/04/18 04:39:44;;;;;;;14.02;7.10;;;6.80;99.90;;;;;;5027503;28;20463;-84
2023/04/18 04:42:11;;;;;;;12.65;7.43;;;6.90;99.90;;;;;;5014063;28;20107;-83
2023/04/18 04:44:37;;;;;;;15.88;7.88;;;6.90;99.90;;;;;;4990154;28;20041;-84
2023/04/18 04:47:02;;;;;;;13.88;7.45;;;6.80;99.90;;;;;;5046572;28;20037;-84
2023/04/18 04:49:28;;;;;;;13.65;7.68;;;7.40;99.90;;;;;;5023206;28;20061;-84
2023/04/18 04:51:54;;;;;;;14.07;7.63;;;6.90;99.90;;;;;;5003816;28;20041;-83
2023/04/18 04:54:19;;;;;;;12.85;7.90;;;6.90;99.90;;;;;;5027213;28;20460;-82
2023/04/18 04:56:45;;;;;;;14.45;7.57;;;6.90;99.90;;;;;;5004065;28;20052;-82
2023/04/18 04:59:11;;;;;;;14.63;7.80;;;6.90;99.90;;;;;;5022109;28;20049;-82
2023/04/18 05:01:37;;;;;;;14.90;8.43;;;6.90;99.90;;;;;;5018442;28;20395;-83
2023/04/18 05:04:03;;;;;;;13.10;7.40;;;6.90;99.90;;;;;;5025307;28;20059;-83
2023/04/18 05:06:32;;;;;;;15.07;7.55;;;6.90;99.90;;;;;;5025637;28;20572;-82
2023/04/18 05:08:59;;;;;;;14.98;8.18;;;6.90;99.90;;;;;;5018452;28;20050;-84
2023/04/18 05:11:25;;;;;;;13.00;7.70;;;6.90;99.90;;;;;;5017964;28;20049;-85
2023/04/18 05:13:51;;;;;;;16.73;8.30;;;6.70;99.90;;;;;;5025486;28;20132;-83
2023/04/18 05:16:17;;;;;;;12.70;7.88;;;7.00;99.90;;;;;;5021534;28;20125;-83
2023/04/18 05:18:43;;;;;;;14.63;8.75;;;7.00;99.90;;;;;;5022661;28;20041;-84
2023/04/18 05:21:08;;;;;;;13.82;8.07;;;7.00;99.90;;;;;;5018945;28;20128;-84
2023/04/18 05:23:35;;;;;;;13.57;8.10;;;7.00;99.90;;;;;;5023644;28;20968;-83
2023/04/18 05:26:05;;;;;;;15.57;9.07;;;7.00;99.90;;;;;;5025596;28;20589;-84
2023/04/18 05:28:31;;;;;;;12.85;8.05;;;7.00;99.90;;;;;;5026658;28;20103;-84
2023/04/18 05:31:00;;;;;;;15.02;9.18;;;7.20;99.90;;;;;;5058562;28;20068;-85
2023/04/18 05:33:31;;;;;;;15.30;8.70;;;7.00;99.90;;;;;;5007748;28;20203;-82
2023/04/18 05:35:58;;;;;;;13.02;8.10;;;7.00;99.90;;;;;;4997768;28;20053;-85
2023/04/18 05:38:24;;;;;;;17.13;9.18;;;7.60;99.90;;;;;;5015476;28;20961;-84
2023/04/18 05:40:50;;;;;;;15.05;8.68;;;7.10;99.90;;;;;;5012679;28;20168;-85
2023/04/18 05:43:18;;;;;;;16.42;9.23;;;7.10;99.90;;;;;;5018329;28;20037;-83
2023/04/18 05:45:44;;;;;;;16.98;8.57;;;7.10;99.90;;;;;;5030250;28;20524;-84
2023/04/18 05:48:09;;;;;;;15.38;8.63;;;7.30;99.90;;;;;;5018505;28;20034;-85
2023/04/18 05:50:35;;;;;;;15.43;8.98;;;7.10;99.90;;;;;;4997983;28;20511;-84
2023/04/18 05:53:01;;;;;;;15.65;8.73;;;7.10;99.90;;;;;;5055328;28;20042;-83
2023/04/18 05:55:27;;;;;;;15.35;8.68;;;7.20;99.90;;;;;;5010208;28;20065;-80
2023/04/18 05:57:52;;;;;;;16.35;8.23;;;7.20;99.90;;;;;;5047360;28;20053;-82
2023/04/18 06:00:18;;;;;;;17.95;9.75;;;7.20;99.90;;;;;;5056474;28;20076;-85
2023/04/18 06:02:45;;;;;;;18.13;9.70;;;7.30;99.90;;;;;;5020714;28;20053;-84
2023/04/18 06:05:11;;;;;;;15.98;9.00;;;7.30;99.90;;;;;;5019230;28;20096;-85
2023/04/18 06:07:37;;;;;;;17.58;8.75;;;7.30;99.90;;;;;;5055110;28;20421;-85
2023/04/18 06:10:06;;;;;;;16.33;9.65;;;7.40;99.90;;;;;;5019202;28;20045;-83
2023/04/18 06:12:32;;;;;;;15.65;8.55;;;7.40;99.90;;;;;;5023772;28;20192;-84
2023/04/18 06:14:58;;;;;;;15.70;8.95;;;7.60;99.90;;;;;;5052475;28;20136;-84
2023/04/18 06:17:23;;;;;;;14.93;8.73;;;7.90;99.90;;;;;;5013058;28;20038;-83
2023/04/18 06:19:49;;;;;;;17.60;8.77;;;7.70;99.90;;;;;;5017425;28;20063;-84
2023/04/18 06:22:15;;;;;;;16.77;7.82;;;7.80;99.90;;;;;;5008161;28;20073;-83
2023/04/18 06:24:43;;;;;;;16.33;7.93;;;7.80;99.90;;;;;;5023619;28;20945;-83
2023/04/18 06:27:09;;;;;;;17.85;8.05;;;7.90;99.90;;;;;;5025959;28;20042;-81
2023/04/18 06:29:36;;;;;;;14.57;7.78;;;7.90;99.90;;;;;;5026115;28;20106;-81
2023/04/18 06:32:02;;;;;;;13.68;7.65;;;8.00;99.90;;;;;;5044776;28;20049;-83
2023/04/18 06:34:28;;;;;;;14.35;8.13;;;8.20;99.90;;;;;;5022592;28;20433;-86
2023/04/18 06:36:54;;;;;;;15.30;8.35;;;8.30;99.90;;;;;;5006135;28;20046;-82
2023/04/18 06:39:20;;;;;;;13.57;6.97;;;8.60;99.90;;;;;;5023169;28;20029;-84
2023/04/18 06:41:48;;;;;;;14.95;7.53;;;8.60;99.90;;;;;;5025909;28;20046;-79
2023/04/18 06:44:13;;;;;;;13.90;7.53;;;8.60;99.90;;;;;;5015936;28;20049;-83
2023/04/18 06:46:39;;;;;;;14.18;7.25;;;8.70;99.90;;;;;;5019988;28;20410;-82
2023/04/18 06:49:05;;;;;;;14.40;7.35;;;8.60;99.90;;;;;;5031112;28;20065;-80
2023/04/18 06:51:31;;;;;;;14.30;6.90;;;8.60;99.90;;;;;;5051237;28;20042;-82
2023/04/18 06:53:56;;;;;;;18.77;7.28;;;8.60;99.90;;;;;;5033486;28;20493;-79
2023/04/18 06:56:22;;;;;;;13.88;7.35;;;8.60;99.90;;;;;;5008866;28;20048;-82
2023/04/18 06:58:48;;;;;;;12.90;6.82;;;8.70;99.90;;;;;;5013166;28;20060;-81
2023/04/18 07:01:14;;;;;;;16.77;6.70;;;8.70;99.90;;;;;;5029135;28;20034;-82
2023/04/18 07:03:43;;;;;;;12.63;6.70;;;8.70;99.90;;;;;;5025288;28;20056;-80
2023/04/18 07:06:09;;;;;;;14.40;6.85;;;8.70;99.90;;;;;;5017516;28;20587;-82
2023/04/18 07:08:36;;;;;;;12.43;6.20;;;8.80;99.90;;;;;;5005997;28;20042;-81
2023/04/18 07:11:01;;;;;;;10.52;6.88;;;8.90;99.90;;;;;;5013860;28;20447;-81
2023/04/18 07:13:27;;;;;;;16.80;7.65;;;8.90;99.90;;;;;;5022703;28;20084;-81
2023/04/18 07:15:53;;;;;;;15.10;7.03;;;9.00;99.90;;;;;;5017923;28;20045;-85
2023/04/18 07:18:19;;;;;;;17.25;7.10;;;9.00;99.90;;;;;;5003148;28;20034;-81
2023/04/18 07:20:44;;;;;;;12.82;7.55;;;9.10;99.90;;;;;;5028128;28;20482;-81
2023/04/18 07:23:10;;;;;;;14.30;6.80;;;9.20;99.90;;;;;;5023456;28;20390;-80
2023/04/18 07:25:37;;;;;;;15.77;7.25;;;9.20;99.90;;;;;;5004195;28;20050;-82
2023/04/18 07:28:02;;;;;;;10.60;6.82;;;9.30;99.90;;;;;;5051521;28;20092;-82
2023/04/18 07:30:28;;;;;;;13.02;7.38;;;9.40;99.90;;;;;;5022456;28;20037;-80
2023/04/18 07:32:54;;;;;;;13.90;7.25;;;9.50;99.90;;;;;;5024125;28;20051;-80
2023/04/18 07:35:20;;;;;;;12.43;7.00;;;9.60;99.90;;;;;;5043938;28;20132;-82
2023/04/18 07:37:46;;;;;;;12.07;6.70;;;9.60;99.90;;;;;;5019784;28;20080;-80
2023/04/18 07:40:12;;;;;;;14.18;7.50;;;9.60;99.90;;;;;;5029679;28;20509;-80
2023/04/18 07:42:38;;;;;;;13.15;7.32;;;9.60;99.90;;;;;;5028934;28;20049;-80
2023/04/18 07:45:04;;;;;;;13.77;7.72;;;9.70;99.90;;;;;;5058973;28;20593;-81
2023/04/18 07:47:30;;;;;;;13.18;7.65;;;9.80;99.90;;;;;;5026661;28;20077;-80
2023/04/18 07:49:56;;;;;;;12.93;7.40;;;9.80;99.90;;;;;;5051566;28;20593;-82
2023/04/18 07:52:22;;;;;;;13.77;7.57;;;9.90;99.90;;;;;;5024130;28;20143;-80
2023/04/18 07:54:47;;;;;;;13.63;8.07;;;10.00;99.90;;;;;;5014931;28;20506;-79
2023/04/18 07:57:13;;;;;;;15.40;7.53;;;10.00;99.90;;;;;;5051802;28;20148;-81
2023/04/18 07:59:39;;;;;;;14.13;7.47;;;10.00;99.90;;;;;;5035471;28;20512;-82
2023/04/18 08:02:06;;;;;;;16.77;8.25;;;10.10;99.90;;;;;;5023344;28;20045;-81
2023/04/18 08:04:31;;;;;;;13.43;7.90;;;10.10;99.90;;;;;;5021028;28;20454;-81
2023/04/18 08:06:57;;;;;;;16.13;8.52;;;10.10;99.90;;;;;;5026205;28;20053;-80
2023/04/18 08:09:23;;;;;;;14.48;8.02;;;10.10;99.90;;;;;;5027448;28;20053;-80
2023/04/18 08:11:49;;;;;;;15.40;7.65;;;10.20;99.90;;;;;;5032563;28;20115;-81
2023/04/18 08:14:15;;;;;;;13.38;8.27;;;10.20;99.90;;;;;;5029403;28;20041;-83
2023/04/18 08:16:40;;;;;;;18.17;8.48;;;10.20;99.90;;;;;;5021622;28;20092;-83
2023/04/18 08:19:09;;;;;;;13.60;7.40;;;10.30;99.90;;;;;;5018642;28;20048;-83
2023/04/18 08:21:35;;;;;;;14.27;7.05;;;10.40;99.90;;;;;;5025320;28;20413;-82
2023/04/18 08:24:01;;;;;;;15.43;7.28;;;10.40;99.90;;;;;;5017215;28;20084;-82
2023/04/18 08:26:26;;;;;;;12.55;7.22;;;10.50;99.90;;;;;;5025310;28;20460;-83
2023/04/18 08:28:52;;;;;;;15.75;8.38;;;10.60;99.90;;;;;;5017836;28;20063;-80
2023/04/18 08:31:18;;;;;;;16.23;7.85;;;10.60;99.90;;;;;;5016678;28;20038;-84
2023/04/18 08:33:43;;;;;;;14.98;7.03;;;10.60;99.90;;;;;;5016320;28;20088;-85
2023/04/18 08:36:10;;;;;;;17.80;8.18;;;10.70;99.90;;;;;;5051463;28;20771;-85
2023/04/18 08:38:36;;;;;;;14.50;7.65;;;10.70;99.90;;;;;;5052385;28;20045;-82
2023/04/18 08:41:02;;;;;;;14.52;7.13;;;10.80;99.90;;;;;;5007766;28;20079;-82
2023/04/18 08:43:29;;;;;;;14.00;7.70;;;10.80;99.90;;;;;;5015788;28;20048;-83
2023/04/18 08:45:58;;;;;;;14.20;7.38;;;10.90;99.90;;;;;;4997056;28;20190;-85
2023/04/18 08:48:27;;;;;;;14.00;7.07;;;11.00;99.90;;;;;;5012658;28;20641;-83
2023/04/18 08:50:57;;;;;;;14.45;6.55;;;11.00;99.90;;;;;;4997194;28;20045;-82
2023/04/18 08:53:23;;;;;;;13.43;6.88;;;11.20;99.90;;;;;;5011872;28;20536;-81
2023/04/18 08:55:56;;;;;;;17.70;7.68;;;11.30;99.90;;;;;;5014495;28;20073;-80
2023/04/18 08:58:23;;;;;;;15.98;8.02;;;11.30;99.90;;;;;;5011097;28;20498;-80
2023/04/18 09:00:50;;;;;;;11.73;6.53;;;11.40;99.90;;;;;;5009601;28;20046;-83
2023/04/18 09:03:33;;;;;;;15.35;7.40;;;11.40;99.90;;;;;;5013235;28;20060;-83
2023/04/18 09:06:12;;;;;;;13.75;6.88;;;11.40;99.90;;;;;;5003722;28;20858;-81
2023/04/18 09:08:40;;;;;;;13.77;6.68;;;11.50;99.90;;;;;;5004733;28;20077;-84
2023/04/18 09:11:27;;;;;;;12.07;6.63;;;11.60;99.90;;;;;;5012162;28;20052;-84
2023/04/18 09:13:55;;;;;;;11.55;6.93;;;11.60;99.90;;;;;;5017722;28;20041;-83
2023/04/18 09:16:22;;;;;;;12.50;7.30;;;11.80;99.90;;;;;;5014368;28;20522;-82
2023/04/18 09:19:09;;;;;;;13.65;6.50;;;11.70;99.90;;;;;;5006822;28;20232;-82
2023/04/18 09:21:40;;;;;;;14.23;7.50;;;11.80;99.90;;;;;;5007718;28;20161;-82
2023/04/18 09:24:19;;;;;;;11.85;7.05;;;11.80;99.90;;;;;;5043641;28;20052;-80
2023/04/18 09:26:48;;;;;;;15.65;7.07;;;11.80;99.90;;;;;;4991381;28;20049;-81
2023/04/18 09:29:16;;;;;;;11.02;6.68;;;11.90;99.90;;;;;;5045875;28;20060;-83
2023/04/18 09:32:00;;;;;;;14.68;6.32;;;11.90;99.90;;;;;;5016485;28;20045;-81
2023/04/18 09:34:26;;;;;;;12.20;6.80;;;11.90;99.90;;;;;;5011938;28;20065;-82
2023/04/18 09:37:10;;;;;;;12.93;6.55;;;12.00;99.90;;;;;;5014323;28;20034;-82
2023/04/18 09:39:41;;;;;;;14.82;7.15;;;12.20;99.90;;;;;;5005326;28;20042;-81
2023/04/18 09:42:09;;;;;;;13.30;7.00;;;12.00;99.90;;;;;;5019777;28;20505;-84
2023/04/18 09:44:36;;;;;;;14.77;7.22;;;12.00;99.90;;;;;;5053683;28;20037;-83
2023/04/18 09:47:02;;;;;;;13.20;6.88;;;12.00;99.90;;;;;;5023880;28;20045;-81
2023/04/18 09:49:28;;;;;;;14.48;6.95;;;12.00;99.90;;;;;;5027935;28;20045;-82
2023/04/18 09:51:54;;;;;;;15.27;6.97;;;12.00;99.90;;;;;;4999507;28;20038;-82
2023/04/18 09:54:23;;;;;;;16.58;7.07;;;12.10;99.90;;;;;;5050198;28;20053;-83
2023/04/18 09:56:50;;;;;;;11.52;6.40;;;12.00;99.90;;;;;;5026292;28;20045;-81
2023/04/18 09:59:31;;;;;;;13.07;6.53;;;12.00;99.90;;;;;;5009830;28;20037;-82
2023/04/18 10:01:58;;;;;;;13.63;6.72;;;12.00;99.90;;;;;;5020527;28;20041;-83
2023/04/18 10:04:26;;;;;;;11.88;6.55;;;12.00;99.90;;;;;;5049022;28;20091;-82
2023/04/18 10:06:53;;;;;;;10.95;6.35;;;12.00;99.90;;;;;;4997309;28;20046;-82
2023/04/18 10:09:20;;;;;;;10.90;6.45;;;12.00;99.90;;;;;;5014140;28;20042;-83
2023/04/18 10:11:46;;;;;;;11.68;6.25;;;12.10;99.90;;;;;;5014606;28;20033;-81
2023/04/18 10:14:15;;;;;;;12.73;6.03;;;12.20;99.90;;;;;;5014441;28;20041;-82
2023/04/18 10:16:44;;;;;;;12.68;6.15;;;12.30;99.90;;;;;;5019707;28;20121;-81
2023/04/18 10:19:24;;;;;;;11.35;6.45;;;12.30;99.90;;;;;;5013724;28;20121;-83
2023/04/18 10:21:57;;;;;;;11.25;6.43;;;12.30;99.90;;;;;;5019243;28;20046;-82
2023/04/18 10:24:47;;;;;;;10.90;5.72;;;12.30;99.90;;;;;;5020212;28;20046;-81
2023/04/18 10:27:14;;;;;;;11.38;5.95;;;12.30;99.90;;;;;;5013616;28;20060;-80
2023/04/18 10:29:52;;;;;;;12.45;5.90;;;12.40;99.90;;;;;;4996251;28;20037;-82
2023/04/18 10:32:21;;;;;;;13.02;5.75;;;12.50;99.90;;;;;;4996238;28;20179;-82
2023/04/18 10:34:48;;;;;;;10.85;6.00;;;12.50;99.90;;;;;;5029325;28;20481;-84
2023/04/18 10:37:14;;;;;;;9.35;5.63;;;12.50;99.90;;;;;;5045364;28;20478;-81
2023/04/18 10:39:57;;;;;;;9.70;5.88;;;12.60;99.90;;;;;;4994252;28;20111;-80
2023/04/18 10:42:51;;;;;;;9.75;5.72;;;12.50;99.90;;;;;;5021417;28;20056;-82
2023/04/18 10:45:21;;;;;;;9.57;5.18;;;12.50;99.90;;;;;;5016882;28;20054;-81
2023/04/18 10:47:47;;;;;;;9.05;4.78;;;12.60;99.90;;;;;;4997878;28;20544;-80
2023/04/18 10:50:14;;;;;;;11.40;5.10;;;12.70;99.90;;;;;;5013026;28;20046;-81
2023/04/18 10:52:40;;;;;;;9.27;5.00;;;12.70;99.90;;;;;;5000075;28;20037;-80
2023/04/18 10:55:09;;;;;;;9.25;5.20;;;12.80;99.90;;;;;;5012040;28;20049;-80
2023/04/18 10:57:43;;;;;;;9.88;4.93;;;12.90;99.90;;;;;;5010972;28;20042;-81
2023/04/18 11:00:12;;;;;;;7.95;4.70;;;12.90;99.90;;;;;;5046023;28;20050;-81
2023/04/18 11:02:39;;;;;;;10.95;5.30;;;12.90;99.90;;;;;;5013275;28;20044;-83
2023/04/18 11:05:06;;;;;;;16.70;6.47;;;12.80;99.90;;;;;;5049704;28;20083;-81
2023/04/18 11:07:35;;;;;;;9.93;5.53;;;12.80;99.90;;;;;;5010472;28;20111;-79
2023/04/18 11:10:02;;;;;;;11.00;5.40;;;12.80;99.90;;;;;;5047160;28;20407;-81
2023/04/18 11:12:33;;;;;;;7.93;4.63;;;12.80;99.90;;;;;;5016470;28;20088;-81
2023/04/18 11:15:00;;;;;;;11.35;5.70;;;12.80;99.90;;;;;;5045135;28;20049;-81
2023/04/18 11:17:34;;;;;;;12.80;4.93;;;12.80;99.90;;;;;;5019069;28;20042;-82
2023/04/18 11:20:18;;;;;;;8.70;4.85;;;12.70;99.90;;;;;;5014196;28;20072;-81
2023/04/18 11:22:58;;;;;;;9.68;5.05;;;12.80;99.90;;;;;;5051489;28;20049;-83
2023/04/18 11:25:35;;;;;;;8.93;5.10;;;12.90;99.90;;;;;;5008700;28;20554;-83
2023/04/18 11:28:02;;;;;;;10.95;5.20;;;12.90;99.90;;;;;;4992698;28;20417;-80
2023/04/18 11:30:36;;;;;;;10.68;4.75;;;13.00;99.90;;;;;;4996882;28;20046;-80
2023/04/18 11:33:17;;;;;;;8.90;5.63;;;13.00;99.90;;;;;;5047623;28;20105;-82
2023/04/18 11:35:44;;;;;;;8.60;5.20;;;12.90;99.90;;;;;;5006637;28;20744;-81
2023/04/18 11:38:14;;;;;;;8.63;5.63;;;13.00;99.90;;;;;;5010252;28;20069;-81
2023/04/18 11:40:47;;;;;;;9.43;5.45;;;13.00;99.90;;;;;;5043340;28;20037;-80
2023/04/18 11:43:19;;;;;;;10.38;6.28;;;13.00;99.90;;;;;;5045426;28;20144;-82
2023/04/18 11:45:53;;;;;;;9.13;5.47;;;13.10;99.90;;;;;;4998651;28;20052;-80
2023/04/18 11:48:19;;;;;;;10.48;5.50;;;13.10;99.90;;;;;;5011973;28;20407;-82
2023/04/18 11:50:44;;;;;;;9.25;5.80;;;13.00;99.90;;;;;;5045529;28;20052;-81
2023/04/18 11:53:10;;;;;;;10.68;6.07;;;13.10;99.90;;;;;;5017903;28;20046;-80
2023/04/18 11:55:36;;;;;;;14.98;5.03;;;13.20;99.90;;;;;;5053268;28;20047;-82
2023/04/18 11:58:03;;;;;;;9.63;5.25;;;13.10;99.90;;;;;;5017661;28;20281;-81
2023/04/18 12:00:40;;;;;;;7.38;4.82;;;13.20;99.90;;;;;;5017443;28;20812;-80
2023/04/18 12:03:21;;;;;;;12.52;4.82;;;13.30;99.90;;;;;;5008699;28;20049;-81
2023/04/18 12:05:47;;;;;;;7.72;4.60;;;13.30;99.90;;;;;;5035082;28;20041;-81
2023/04/18 12:08:17;;;;;;;7.95;4.70;;;13.40;99.90;;;;;;5010431;28;20057;-79
2023/04/18 12:10:49;;;;;;;8.88;4.38;;;13.50;99.90;;;;;;5040648;28;20450;-80
2023/04/18 12:13:15;;;;;;;6.68;3.90;;;13.60;99.90;;;;;;5016405;28;20057;-81
2023/04/18 12:15:43;;;;;;;8.85;4.18;;;13.60;99.90;;;;;;5008697;28;20045;-81
2023/04/18 12:18:11;;;;;;;10.95;4.53;;;13.60;99.90;;;;;;5045704;28;20044;-80
2023/04/18 12:20:48;;;;;;;7.47;4.32;;;13.60;99.90;;;;;;5020454;28;20041;-81
2023/04/18 12:23:39;;;;;;;8.93;3.90;;;13.60;99.90;;;;;;5014043;28;20100;-79
2023/04/18 12:26:13;;;;;;;8.75;3.63;;;13.60;99.90;;;;;;5005283;28;20037;-79
2023/04/18 12:28:43;;;;;;;7.68;4.00;;;13.70;99.90;;;;;;5022239;28;20077;-80
2023/04/18 12:31:08;;;;;;;6.47;3.40;;;13.70;99.90;;;;;;5018176;28;20132;-81
2023/04/18 12:33:37;;;;;;;8.95;3.55;;;13.70;99.90;;;;;;5013950;28;20079;-79
2023/04/18 12:36:07;;;;;;;8.10;3.22;;;13.70;99.90;;;;;;5017315;28;20054;-80
2023/04/18 12:38:34;;;;;;;;;;;13.70;99.90;;;;;;4999109;28;20053;-80
2023/04/18 12:40:59;;;;;;;6.38;3.22;;;13.70;99.90;;;;;;4991612;28;19936;-76
2023/04/18 12:43:25;;;;;;;6.10;3.13;;;13.70;99.90;;;;;;4997637;28;20060;-77
2023/04/18 12:45:51;;;;;;;6.75;2.92;;;13.70;99.90;;;;;;5001185;28;20056;-77